Time;durP1;ratioP1;P1;durP2;ratioP2;P2;SDS_P1;SDS_P2;PMS_P1;PMS_P2;Temp;Humidity;BMP_temperature;BMP_pressure;BME280_temperature;BME280_humidity;BME280_pressure;Samples;Min_cycle;Max_cycle;Signal;HPM_P1;HPM_P2
2021/07/30 00:01:04;;;;;;;4.45;2.50;;;25.30;66.70;;;;;;5036968;28;20190;-74
2021/07/30 00:03:30;;;;;;;8.02;2.70;;;25.30;67.00;;;;;;5042077;28;20183;-74
2021/07/30 00:05:56;;;;;;;6.03;2.70;;;25.30;66.80;;;;;;5040796;28;20190;-74
2021/07/30 00:08:23;;;;;;;5.53;2.90;;;25.30;67.10;;;;;;5040792;28;20196;-76
2021/07/30 00:10:54;;;;;;;5.82;2.97;;;25.30;67.10;;;;;;5038080;28;21155;-74
2021/07/30 00:13:22;;;;;;;5.35;2.58;;;25.30;66.70;;;;;;5032207;28;20195;-76
2021/07/30 00:15:48;;;;;;;8.18;2.92;;;25.20;66.20;;;;;;5021915;28;20271;-76
2021/07/30 00:18:15;;;;;;;6.70;2.67;;;25.20;66.10;;;;;;5041526;28;20200;-76
2021/07/30 00:20:41;;;;;;;4.68;2.55;;;25.30;66.70;;;;;;5042560;28;20183;-75
2021/07/30 00:23:07;;;;;;;6.80;2.55;;;25.20;65.90;;;;;;5034318;28;20289;-74
2021/07/30 00:25:34;;;;;;;9.48;2.83;;;25.20;66.00;;;;;;5039061;28;20811;-77
2021/07/30 00:28:02;;;;;;;8.07;2.85;;;25.20;65.70;;;;;;5038424;28;21088;-77
2021/07/30 00:30:28;;;;;;;5.00;2.42;;;25.20;65.90;;;;;;5041435;28;20191;-75
2021/07/30 00:32:54;;;;;;;7.78;2.40;;;25.20;66.20;;;;;;5041735;28;20187;-74
2021/07/30 00:35:21;;;;;;;7.65;2.60;;;25.20;66.30;;;;;;5059256;28;20966;-75
2021/07/30 00:37:47;;;;;;;5.60;2.50;;;25.20;66.30;;;;;;5041947;28;20188;-75
2021/07/30 00:40:13;;;;;;;8.80;2.80;;;25.10;66.10;;;;;;5058124;28;20192;-73
2021/07/30 00:42:53;;;;;;;7.00;2.60;;;25.10;65.80;;;;;;5045207;28;20226;-73
2021/07/30 00:45:20;;;;;;;4.50;2.50;;;25.10;66.30;;;;;;5046500;28;20195;-73
2021/07/30 00:47:49;;;;;;;4.68;2.75;;;25.10;66.20;;;;;;5044819;28;20191;-73
2021/07/30 00:50:17;;;;;;;10.63;2.97;;;25.10;66.00;;;;;;5039128;28;20299;-74
2021/07/30 00:52:45;;;;;;;6.47;2.50;;;25.00;65.70;;;;;;5042797;28;20954;-73
2021/07/30 00:55:13;;;;;;;8.80;2.88;;;25.00;65.70;;;;;;5033282;28;20188;-73
2021/07/30 00:57:40;;;;;;;8.85;3.20;;;24.90;66.00;;;;;;5045542;28;20206;-74
2021/07/30 01:00:07;;;;;;;6.88;2.83;;;25.00;65.90;;;;;;5061443;28;20835;-74
2021/07/30 01:02:35;;;;;;;7.32;2.80;;;24.90;66.00;;;;;;5042293;28;20208;-73
2021/07/30 01:05:01;;;;;;;8.43;2.92;;;25.00;66.40;;;;;;5042860;28;20191;-73
2021/07/30 01:07:28;;;;;;;9.27;2.80;;;25.00;66.40;;;;;;5045686;28;20253;-73
2021/07/30 01:09:57;;;;;;;6.47;2.40;;;24.90;66.10;;;;;;5043386;28;20186;-73
2021/07/30 01:12:23;;;;;;;7.55;2.63;;;24.80;65.60;;;;;;5043887;28;20183;-73
2021/07/30 01:14:49;;;;;;;8.05;2.80;;;24.80;65.90;;;;;;5043700;28;20294;-73
2021/07/30 01:17:17;;;;;;;4.10;2.50;;;24.80;65.90;;;;;;5042871;28;20200;-74
2021/07/30 01:19:43;;;;;;;6.25;2.88;;;24.80;66.10;;;;;;5044501;28;20779;-72
2021/07/30 01:22:43;;;;;;;10.77;2.78;;;24.80;65.90;;;;;;5042251;28;20216;-74
2021/07/30 01:25:10;;;;;;;5.55;2.92;;;24.80;66.10;;;;;;5036517;28;20223;-74
2021/07/30 01:27:36;;;;;;;7.20;2.80;;;24.70;65.80;;;;;;5047803;28;20183;-74
2021/07/30 01:30:03;;;;;;;8.43;2.50;;;24.70;66.10;;;;;;5058881;28;20312;-74
2021/07/30 01:32:29;;;;;;;6.33;2.80;;;24.70;65.90;;;;;;5056713;28;20195;-74
2021/07/30 01:34:55;;;;;;;8.68;2.50;;;24.70;66.00;;;;;;5044445;28;20864;-73
2021/07/30 01:37:26;;;;;;;8.35;2.75;;;24.60;66.10;;;;;;5028077;28;20192;-74
2021/07/30 01:39:52;;;;;;;4.47;2.53;;;24.60;66.10;;;;;;5058875;28;20191;-73
2021/07/30 01:42:18;;;;;;;8.80;2.70;;;24.60;66.10;;;;;;5045520;28;20208;-72
2021/07/30 01:44:44;;;;;;;6.00;2.50;;;24.60;66.10;;;;;;5060394;28;20181;-73
2021/07/30 01:47:11;;;;;;;4.45;2.65;;;24.60;65.90;;;;;;5045467;28;20769;-73
2021/07/30 01:49:37;;;;;;;8.60;2.63;;;24.60;66.20;;;;;;5044044;28;20758;-73
2021/07/30 01:52:04;;;;;;;10.57;2.60;;;24.60;66.30;;;;;;5043494;28;20199;-75
2021/07/30 01:54:30;;;;;;;11.23;2.93;;;24.60;66.40;;;;;;5027380;28;20215;-74
2021/07/30 01:56:56;;;;;;;6.10;2.88;;;24.60;66.80;;;;;;5044921;28;20201;-75
2021/07/30 01:59:23;;;;;;;5.13;2.60;;;24.60;66.60;;;;;;5042555;28;20257;-74
2021/07/30 02:01:49;;;;;;;3.90;2.30;;;24.60;66.40;;;;;;5045558;28;20211;-76
2021/07/30 02:04:18;;;;;;;10.88;2.65;;;24.50;66.30;;;;;;5026236;28;20180;-75
2021/07/30 02:06:45;;;;;;;7.90;2.93;;;24.50;66.50;;;;;;5023070;28;20664;-73
2021/07/30 02:09:11;;;;;;;5.33;2.90;;;24.40;66.60;;;;;;5030250;28;20192;-73
2021/07/30 02:11:43;;;;;;;7.10;2.70;;;24.40;67.10;;;;;;5043952;28;20203;-75
2021/07/30 02:14:16;;;;;;;6.07;2.80;;;24.40;67.00;;;;;;5020707;28;20192;-74
2021/07/30 02:16:55;;;;;;;4.13;2.83;;;24.40;67.10;;;;;;5059237;28;20282;-74
2021/07/30 02:19:23;;;;;;;6.87;2.77;;;24.30;67.00;;;;;;5044813;28;20183;-72
2021/07/30 02:21:55;;;;;;;6.37;2.63;;;24.30;67.10;;;;;;5058888;28;20560;-75
2021/07/30 02:24:24;;;;;;;4.93;2.70;;;24.30;67.20;;;;;;5055807;28;20298;-75
2021/07/30 02:26:50;;;;;;;5.23;2.70;;;24.30;67.20;;;;;;5028033;28;20250;-74
2021/07/30 02:29:17;;;;;;;7.33;2.97;;;24.30;67.40;;;;;;5045551;28;20273;-74
2021/07/30 02:31:49;;;;;;;9.60;2.93;;;24.30;67.50;;;;;;5045132;28;20191;-74
2021/07/30 02:34:16;;;;;;;5.60;2.80;;;24.30;67.50;;;;;;5044045;28;20200;-74
2021/07/30 02:36:44;;;;;;;14.80;3.20;;;24.20;67.20;;;;;;5042682;28;20373;-73
2021/07/30 02:39:10;;;;;;;4.03;2.70;;;24.30;67.90;;;;;;5058891;28;20652;-75
2021/07/30 02:41:37;;;;;;;9.73;3.17;;;24.30;67.60;;;;;;5045296;28;20606;-75
2021/07/30 02:44:04;;;;;;;5.03;2.73;;;24.30;67.50;;;;;;5044632;28;20203;-74
2021/07/30 02:46:30;;;;;;;6.40;2.75;;;24.40;67.60;;;;;;5037834;28;20237;-74
2021/07/30 02:48:57;;;;;;;7.15;2.88;;;24.40;67.40;;;;;;5041513;28;20698;-74
2021/07/30 02:51:23;;;;;;;4.60;2.60;;;24.40;67.50;;;;;;5042796;28;20199;-73
2021/07/30 02:53:49;;;;;;;8.70;2.97;;;24.40;67.40;;;;;;5062174;28;20282;-73
2021/07/30 02:56:15;;;;;;;8.55;2.95;;;24.30;66.90;;;;;;5043452;28;20200;-75
2021/07/30 02:58:42;;;;;;;17.05;3.25;;;24.30;66.80;;;;;;5042330;28;20187;-75
2021/07/30 03:01:08;;;;;;;6.90;2.67;;;24.20;66.50;;;;;;5058074;28;20195;-74
2021/07/30 03:03:34;;;;;;;8.30;2.80;;;24.20;66.60;;;;;;5046875;28;20188;-74
2021/07/30 03:06:02;;;;;;;5.23;2.53;;;24.20;66.20;;;;;;5042991;28;20203;-73
2021/07/30 03:08:28;;;;;;;7.50;2.90;;;24.20;66.60;;;;;;5043830;28;20207;-76
2021/07/30 03:10:56;;;;;;;7.90;2.70;;;24.30;66.40;;;;;;5060636;28;20261;-74
2021/07/30 03:13:24;;;;;;;10.02;2.85;;;24.30;66.40;;;;;;5042658;28;20192;-74
2021/07/30 03:15:57;;;;;;;12.38;2.72;;;24.30;66.50;;;;;;5039622;28;20231;-73
2021/07/30 03:18:26;;;;;;;9.97;2.87;;;24.30;66.50;;;;;;5045331;28;20231;-74
2021/07/30 03:20:53;;;;;;;5.78;2.95;;;24.30;66.90;;;;;;5048598;28;20196;-74
2021/07/30 03:23:19;;;;;;;12.88;2.72;;;24.30;66.60;;;;;;5049169;28;20238;-74
2021/07/30 03:25:45;;;;;;;7.07;2.83;;;24.30;67.10;;;;;;5059527;28;20273;-75
2021/07/30 03:28:11;;;;;;;5.97;2.70;;;24.30;66.80;;;;;;5042981;28;20192;-74
2021/07/30 03:30:39;;;;;;;4.83;2.87;;;24.40;67.30;;;;;;5046389;28;20643;-74
2021/07/30 03:33:05;;;;;;;10.55;3.10;;;24.40;67.40;;;;;;5026960;28;20191;-74
2021/07/30 03:35:32;;;;;;;8.43;3.20;;;24.40;67.30;;;;;;5042514;28;20198;-73
2021/07/30 03:37:59;;;;;;;8.30;2.65;;;24.40;67.60;;;;;;5041487;28;20258;-75
2021/07/30 03:40:27;;;;;;;6.50;2.95;;;24.40;68.10;;;;;;5024993;28;20598;-74
2021/07/30 03:42:53;;;;;;;9.68;2.78;;;24.40;68.00;;;;;;5042607;28;20231;-74
2021/07/30 03:45:20;;;;;;;4.40;2.75;;;24.40;68.10;;;;;;5042823;28;20193;-74
2021/07/30 03:47:46;;;;;;;7.20;2.90;;;24.40;68.00;;;;;;5025436;28;20191;-73
2021/07/30 03:50:12;;;;;;;10.13;2.93;;;24.40;68.20;;;;;;5043368;28;20204;-75
2021/07/30 03:52:39;;;;;;;5.47;2.95;;;24.50;68.50;;;;;;5039150;28;20191;-74
2021/07/30 03:55:06;;;;;;;7.65;2.67;;;24.50;68.30;;;;;;5041170;28;20901;-75
2021/07/30 03:57:32;;;;;;;6.18;2.80;;;24.50;68.60;;;;;;5027686;28;20241;-74
2021/07/30 03:59:59;;;;;;;7.23;2.80;;;24.50;68.80;;;;;;5024367;28;20713;-75
2021/07/30 04:02:25;;;;;;;5.93;2.93;;;24.50;68.70;;;;;;5043056;28;20353;-74
2021/07/30 04:04:51;;;;;;;5.60;3.13;;;24.50;68.80;;;;;;5041854;28;20184;-74
2021/07/30 04:07:17;;;;;;;18.03;3.10;;;24.50;69.10;;;;;;5028524;28;20184;-74
2021/07/30 04:09:44;;;;;;;7.57;2.90;;;24.50;69.30;;;;;;5050989;28;20191;-74
2021/07/30 04:12:10;;;;;;;6.10;2.80;;;24.50;69.40;;;;;;5068010;28;20195;-73
2021/07/30 04:14:36;;;;;;;10.40;2.90;;;24.50;69.50;;;;;;5055654;28;20191;-75
2021/07/30 04:17:03;;;;;;;5.30;3.15;;;24.50;69.80;;;;;;5048875;28;20191;-74
2021/07/30 04:19:29;;;;;;;4.88;2.80;;;24.50;70.10;;;;;;5049193;28;20191;-73
2021/07/30 04:21:56;;;;;;;6.10;2.92;;;24.50;69.60;;;;;;5049865;28;20206;-73
2021/07/30 04:24:22;;;;;;;7.30;2.97;;;24.60;70.30;;;;;;5064667;28;20183;-73
2021/07/30 04:26:48;;;;;;;6.07;2.92;;;24.60;70.30;;;;;;5050391;28;20216;-75
2021/07/30 04:29:14;;;;;;;9.10;3.03;;;24.60;70.30;;;;;;5032210;28;20187;-74
2021/07/30 04:31:41;;;;;;;13.77;2.92;;;24.60;70.40;;;;;;5052047;28;20233;-74
2021/07/30 04:34:08;;;;;;;6.85;2.92;;;24.70;71.30;;;;;;5065163;28;20574;-75
2021/07/30 04:36:35;;;;;;;7.65;3.20;;;24.70;71.70;;;;;;5052844;28;20241;-75
2021/07/30 04:39:02;;;;;;;8.25;3.63;;;24.80;71.70;;;;;;5050512;28;20192;-73
2021/07/30 04:41:29;;;;;;;8.40;2.90;;;24.80;72.00;;;;;;5050719;28;20881;-75
2021/07/30 04:43:56;;;;;;;6.43;3.00;;;24.90;71.50;;;;;;5032922;28;20183;-74
2021/07/30 04:46:22;;;;;;;8.93;2.70;;;24.90;71.20;;;;;;5046737;28;20298;-74
2021/07/30 04:48:48;;;;;;;5.93;2.88;;;24.90;72.00;;;;;;5049913;28;20835;-74
2021/07/30 04:51:15;;;;;;;5.95;3.00;;;24.90;72.70;;;;;;5049586;28;20235;-74
2021/07/30 04:53:41;;;;;;;5.78;2.80;;;25.00;73.20;;;;;;5048931;28;20882;-75
2021/07/30 04:56:15;;;;;;;9.50;3.13;;;25.00;73.00;;;;;;5049805;28;20194;-74
2021/07/30 04:58:43;;;;;;;8.52;3.00;;;25.10;73.50;;;;;;5051266;28;20663;-75
2021/07/30 05:01:41;;;;;;;6.65;3.10;;;25.10;72.90;;;;;;5051565;28;20179;-75
2021/07/30 05:04:26;;;;;;;6.63;2.70;;;25.20;72.10;;;;;;5050005;28;20241;-73
2021/07/30 05:06:53;;;;;;;9.43;3.10;;;25.20;71.30;;;;;;5033865;28;20241;-73
2021/07/30 05:09:19;;;;;;;6.30;2.70;;;25.30;73.10;;;;;;5051449;28;20191;-76
2021/07/30 05:11:45;;;;;;;8.18;2.92;;;25.30;72.00;;;;;;5034611;28;20269;-75
2021/07/30 05:14:12;;;;;;;6.68;2.90;;;25.30;73.10;;;;;;5065659;28;20206;-74
2021/07/30 05:16:40;;;;;;;7.55;3.00;;;25.40;72.50;;;;;;5049636;28;20874;-74
2021/07/30 05:19:06;;;;;;;12.00;2.90;;;25.40;72.10;;;;;;5061542;28;20328;-74
2021/07/30 05:21:35;;;;;;;6.05;2.58;;;25.40;72.20;;;;;;5047930;28;20202;-74
2021/07/30 05:24:01;;;;;;;7.85;3.10;;;25.60;72.40;;;;;;5046374;28;20186;-74
2021/07/30 05:26:28;;;;;;;9.23;2.88;;;25.60;73.30;;;;;;5047278;28;20769;-74
2021/07/30 05:28:54;;;;;;;6.30;2.80;;;25.60;72.20;;;;;;5030957;28;20274;-73
2021/07/30 05:31:22;;;;;;;5.95;2.72;;;25.70;73.00;;;;;;5039490;28;20183;-76
2021/07/30 05:33:49;;;;;;;5.07;2.83;;;25.90;69.80;;;;;;5042722;28;20194;-75
2021/07/30 05:36:20;;;;;;;6.20;3.03;;;26.00;71.70;;;;;;5030810;28;20204;-74
2021/07/30 05:38:48;;;;;;;10.70;2.78;;;26.00;70.70;;;;;;5042859;28;20187;-75
2021/07/30 05:41:16;;;;;;;13.55;3.22;;;26.10;72.20;;;;;;5062647;28;20234;-74
2021/07/30 05:43:45;;;;;;;8.40;2.90;;;26.30;69.00;;;;;;5043471;28;20206;-74
2021/07/30 05:46:18;;;;;;;7.68;2.70;;;26.40;70.90;;;;;;5028955;28;20211;-74
2021/07/30 05:48:45;;;;;;;8.15;3.20;;;26.50;70.50;;;;;;5041502;28;20242;-74
2021/07/30 05:51:13;;;;;;;24.38;3.78;;;26.70;69.20;;;;;;5044684;28;20188;-75
2021/07/30 05:53:40;;;;;;;6.03;3.08;;;26.90;69.10;;;;;;5046286;28;20258;-73
2021/07/30 05:56:07;;;;;;;8.95;3.28;;;27.00;69.50;;;;;;5041855;28;20180;-75
2021/07/30 05:58:34;;;;;;;12.30;3.38;;;27.20;68.90;;;;;;5059427;28;20188;-74
2021/07/30 06:01:01;;;;;;;12.35;3.13;;;27.30;68.80;;;;;;5041597;28;20177;-73
2021/07/30 06:03:27;;;;;;;13.57;3.35;;;27.50;69.10;;;;;;5058503;28;20208;-75
2021/07/30 06:05:53;;;;;;;10.13;3.05;;;27.50;69.10;;;;;;5046681;28;20353;-73
2021/07/30 06:08:20;;;;;;;7.65;2.83;;;27.40;69.80;;;;;;5049402;28;20183;-76
2021/07/30 06:10:46;;;;;;;15.00;3.20;;;27.50;69.90;;;;;;5045738;28;20179;-74
2021/07/30 06:13:12;;;;;;;11.40;3.03;;;27.70;69.40;;;;;;5045130;28;20869;-74
2021/07/30 06:15:40;;;;;;;13.25;2.92;;;27.60;70.30;;;;;;5036994;28;20266;-73
2021/07/30 06:18:07;;;;;;;7.70;3.17;;;27.80;69.80;;;;;;5043839;28;20250;-74
2021/07/30 06:20:34;;;;;;;6.90;2.90;;;28.00;69.70;;;;;;5046961;28;20195;-74
2021/07/30 06:23:00;;;;;;;13.88;3.30;;;28.00;69.30;;;;;;5025061;28;20247;-74
2021/07/30 06:25:27;;;;;;;10.77;3.33;;;28.10;69.90;;;;;;5039695;28;20183;-74
2021/07/30 06:27:53;;;;;;;8.38;3.42;;;28.30;69.50;;;;;;5059287;28;20299;-74
2021/07/30 06:30:20;;;;;;;12.10;3.25;;;28.40;70.30;;;;;;5044249;28;20186;-73
2021/07/30 06:32:46;;;;;;;11.80;3.33;;;28.40;69.90;;;;;;5029547;28;20187;-73
2021/07/30 06:35:15;;;;;;;15.00;3.38;;;28.40;70.30;;;;;;5043872;28;20654;-73
2021/07/30 06:37:43;;;;;;;14.18;3.67;;;28.50;70.40;;;;;;5061011;28;20269;-74
2021/07/30 06:40:10;;;;;;;10.68;3.22;;;28.50;70.40;;;;;;5041631;28;20188;-73
2021/07/30 06:42:41;;;;;;;11.13;3.95;;;28.60;70.50;;;;;;5025286;28;20219;-72
2021/07/30 06:45:08;;;;;;;11.77;3.42;;;28.60;71.00;;;;;;5055984;28;21442;-73
2021/07/30 06:47:38;;;;;;;8.63;2.80;;;28.50;72.30;;;;;;5043910;28;20234;-75
2021/07/30 06:50:06;;;;;;;12.35;3.35;;;28.50;71.70;;;;;;5026914;28;20191;-76
2021/07/30 06:52:32;;;;;;;12.70;3.55;;;28.70;71.60;;;;;;5062351;28;20187;-76
2021/07/30 06:54:59;;;;;;;14.88;4.13;;;28.70;72.80;;;;;;5039534;28;20191;-74
2021/07/30 06:57:25;;;;;;;11.00;3.65;;;28.80;73.20;;;;;;5045291;28;20193;-74
2021/07/30 06:59:53;;;;;;;15.55;3.00;;;29.10;73.70;;;;;;5044757;28;20180;-74
2021/07/30 07:02:20;;;;;;;10.85;3.25;;;29.20;74.70;;;;;;5041616;28;20303;-73
2021/07/30 07:04:46;;;;;;;13.38;3.13;;;29.20;74.80;;;;;;5044805;28;20180;-74
2021/07/30 07:07:13;;;;;;;17.75;3.60;;;29.30;75.30;;;;;;5044626;28;20266;-76
2021/07/30 07:09:39;;;;;;;11.95;3.42;;;29.30;76.20;;;;;;5044911;28;20183;-73
2021/07/30 07:12:06;;;;;;;12.07;3.67;;;29.40;76.10;;;;;;5048014;28;20262;-76
2021/07/30 07:14:32;;;;;;;10.55;2.92;;;29.50;76.10;;;;;;5040551;28;20233;-73
2021/07/30 07:16:59;;;;;;;15.27;3.22;;;29.50;76.40;;;;;;5042822;28;20198;-73
2021/07/30 07:19:26;;;;;;;14.10;3.30;;;29.50;76.70;;;;;;5025578;28;20197;-73
2021/07/30 07:21:56;;;;;;;9.00;3.25;;;29.70;77.50;;;;;;5041827;28;20211;-74
2021/07/30 07:24:22;;;;;;;7.60;3.30;;;29.80;77.70;;;;;;5040493;28;20196;-73
2021/07/30 07:26:49;;;;;;;7.13;3.17;;;29.90;77.50;;;;;;5025631;28;20262;-75
2021/07/30 07:29:15;;;;;;;10.85;3.35;;;29.90;77.80;;;;;;5061168;28;20183;-73
2021/07/30 07:31:44;;;;;;;9.60;3.47;;;30.00;77.40;;;;;;5045657;28;20202;-73
2021/07/30 07:34:11;;;;;;;10.40;3.50;;;30.00;78.00;;;;;;5057883;28;20188;-75
2021/07/30 07:36:38;;;;;;;9.68;3.10;;;30.00;77.60;;;;;;5043388;28;20233;-72
2021/07/30 07:39:04;;;;;;;10.98;3.35;;;30.20;77.20;;;;;;5025002;28;20187;-73
2021/07/30 07:41:30;;;;;;;7.78;2.80;;;30.10;78.20;;;;;;5027800;28;20199;-76
2021/07/30 07:43:57;;;;;;;11.07;3.20;;;30.10;79.10;;;;;;5044350;28;20233;-73
2021/07/30 07:46:23;;;;;;;11.98;3.42;;;30.20;81.30;;;;;;5041887;28;20219;-74
2021/07/30 07:48:50;;;;;;;15.43;3.30;;;30.20;80.90;;;;;;5041980;28;20191;-73
2021/07/30 07:51:16;;;;;;;8.85;3.53;;;30.20;82.20;;;;;;5042593;28;20660;-73
2021/07/30 07:53:43;;;;;;;9.00;3.53;;;30.30;82.30;;;;;;5023089;28;20274;-72
2021/07/30 07:56:10;;;;;;;9.63;3.58;;;30.30;82.90;;;;;;5024473;28;20183;-73
2021/07/30 07:58:37;;;;;;;17.10;3.75;;;30.50;82.80;;;;;;5028332;28;20229;-75
2021/07/30 08:01:07;;;;;;;12.50;3.45;;;30.50;83.20;;;;;;5027928;28;20183;-74
2021/07/30 08:03:34;;;;;;;13.63;3.42;;;30.50;82.60;;;;;;5025082;28;20258;-73
2021/07/30 08:06:03;;;;;;;13.48;3.42;;;30.60;83.00;;;;;;5041945;28;20694;-72
2021/07/30 08:08:30;;;;;;;11.80;3.53;;;30.60;83.40;;;;;;5056548;28;20198;-73
2021/07/30 08:10:56;;;;;;;12.50;3.35;;;30.70;83.20;;;;;;5058878;28;20199;-75
2021/07/30 08:13:22;;;;;;;12.20;3.17;;;30.70;82.80;;;;;;5026245;28;20183;-73
2021/07/30 08:15:49;;;;;;;20.67;3.67;;;30.70;81.90;;;;;;5024706;28;20188;-75
2021/07/30 08:18:15;;;;;;;12.88;3.70;;;30.80;81.40;;;;;;5038765;28;20240;-73
2021/07/30 08:20:41;;;;;;;5.90;3.13;;;30.90;81.30;;;;;;5043512;28;20186;-73
2021/07/30 08:23:07;;;;;;;12.73;3.00;;;31.00;81.30;;;;;;5026874;28;20671;-74
2021/07/30 08:25:34;;;;;;;12.85;3.15;;;31.00;81.10;;;;;;5027758;28;20999;-74
2021/07/30 08:28:03;;;;;;;7.05;2.92;;;31.10;81.40;;;;;;5041504;28;20180;-74
2021/07/30 08:30:30;;;;;;;13.35;3.45;;;31.20;81.40;;;;;;5041125;28;20182;-74
2021/07/30 08:32:58;;;;;;;11.60;3.50;;;31.30;81.00;;;;;;5039569;28;20191;-73
2021/07/30 08:35:26;;;;;;;10.20;3.15;;;31.20;81.00;;;;;;5040980;28;20274;-72
2021/07/30 08:37:54;;;;;;;19.60;3.13;;;31.30;79.50;;;;;;5041519;28;20188;-74
2021/07/30 08:40:22;;;;;;;20.55;3.17;;;31.60;80.20;;;;;;5022523;28;20180;-73
2021/07/30 08:42:51;;;;;;;8.68;3.15;;;31.60;79.80;;;;;;5040767;28;20265;-74
2021/07/30 08:45:18;;;;;;;10.88;3.25;;;31.70;79.90;;;;;;5018986;28;20194;-72
2021/07/30 08:47:45;;;;;;;12.07;3.30;;;31.90;80.90;;;;;;5042074;28;20195;-73
2021/07/30 08:50:13;;;;;;;11.68;3.53;;;32.00;81.30;;;;;;5041348;28;20192;-73
2021/07/30 08:52:43;;;;;;;6.43;2.97;;;32.20;80.10;;;;;;5049059;28;20187;-73
2021/07/30 08:55:12;;;;;;;13.05;3.17;;;32.20;81.20;;;;;;5044767;28;20183;-73
2021/07/30 08:57:42;;;;;;;7.95;3.22;;;32.30;79.90;;;;;;5057444;28;20242;-73
2021/07/30 09:00:12;;;;;;;6.72;3.38;;;32.30;78.70;;;;;;5038885;28;20183;-73
2021/07/30 09:02:40;;;;;;;12.73;3.17;;;32.50;79.50;;;;;;5025540;28;20211;-73
2021/07/30 09:05:32;;;;;;;5.32;3.00;;;32.60;78.80;;;;;;5053049;28;20188;-73
2021/07/30 09:08:04;;;;;;;10.75;3.17;;;32.70;78.50;;;;;;5042435;28;20197;-74
2021/07/30 09:10:42;;;;;;;9.55;3.08;;;32.70;75.50;;;;;;5043625;28;20187;-73
2021/07/30 09:13:27;;;;;;;10.05;2.90;;;32.80;76.80;;;;;;5057285;28;20977;-73
2021/07/30 09:16:11;;;;;;;7.80;3.25;;;32.90;75.50;;;;;;5042295;28;20195;-73
2021/07/30 09:18:41;;;;;;;12.00;3.42;;;32.90;77.40;;;;;;5039288;28;20677;-73
2021/07/30 09:21:32;;;;;;;10.45;3.47;;;33.10;76.00;;;;;;5027691;28;20304;-75
2021/07/30 09:24:20;;;;;;;9.00;3.05;;;33.20;75.90;;;;;;5041542;28;20211;-73
2021/07/30 09:26:57;;;;;;;5.63;2.90;;;33.40;76.70;;;;;;5042752;28;20199;-73
2021/07/30 09:29:32;;;;;;;6.75;2.85;;;33.40;76.60;;;;;;5026852;28;20187;-73
2021/07/30 09:32:06;;;;;;;15.23;3.50;;;33.40;77.40;;;;;;5041326;28;20233;-74
2021/07/30 09:34:37;;;;;;;12.32;2.95;;;33.40;77.00;;;;;;5023302;28;20291;-73
2021/07/30 09:37:11;;;;;;;9.32;3.30;;;33.60;77.80;;;;;;5020162;28;20184;-74
2021/07/30 09:39:45;;;;;;;6.75;3.30;;;33.60;75.10;;;;;;5038540;28;20191;-73
2021/07/30 09:42:16;;;;;;;5.63;3.17;;;33.60;75.30;;;;;;5042436;28;20202;-74
2021/07/30 09:44:51;;;;;;;13.38;3.00;;;33.80;76.80;;;;;;5040560;28;20234;-73
2021/07/30 09:47:24;;;;;;;9.77;3.40;;;33.80;76.50;;;;;;5043285;28;20306;-74
2021/07/30 09:50:01;;;;;;;6.28;3.13;;;33.90;79.30;;;;;;5044117;28;20241;-73
2021/07/30 09:52:34;;;;;;;6.18;3.25;;;34.00;76.50;;;;;;5044868;28;20271;-74
2021/07/30 09:55:05;;;;;;;8.15;3.60;;;34.00;76.70;;;;;;5044410;28;20226;-73
2021/07/30 09:57:34;;;;;;;14.13;3.47;;;34.00;73.80;;;;;;5043892;28;20198;-73
2021/07/30 10:00:05;;;;;;;7.07;3.10;;;34.00;70.40;;;;;;5025521;28;20556;-75
2021/07/30 10:02:34;;;;;;;13.00;3.35;;;34.20;73.30;;;;;;5043607;28;20258;-73
2021/07/30 10:05:03;;;;;;;6.82;3.75;;;34.20;73.20;;;;;;5041016;28;20188;-73
2021/07/30 10:07:33;;;;;;;4.63;3.25;;;34.20;71.10;;;;;;5041468;28;20494;-74
2021/07/30 10:12:54;;;;;;;9.70;3.42;;;34.40;77.20;;;;;;5041640;28;20633;-72
2021/07/30 10:15:22;;;;;;;6.60;3.50;;;34.30;76.70;;;;;;5043354;28;20183;-74
2021/07/30 10:17:52;;;;;;;6.68;3.05;;;34.30;80.00;;;;;;5023095;28;20267;-74
2021/07/30 10:20:22;;;;;;;9.88;3.33;;;34.40;82.20;;;;;;5021444;28;20677;-73
2021/07/30 10:22:53;;;;;;;12.65;3.70;;;34.50;82.80;;;;;;5043977;28;20207;-73
2021/07/30 10:25:33;;;;;;;9.07;3.45;;;34.60;85.10;;;;;;5041820;28;20184;-74
2021/07/30 10:28:11;;;;;;;9.57;3.30;;;34.70;87.30;;;;;;5022490;28;20226;-74
2021/07/30 10:30:58;;;;;;;9.52;3.45;;;36.60;86.10;;;;;;5040209;28;20263;-74
2021/07/30 10:33:34;;;;;;;10.70;3.25;;;37.20;82.20;;;;;;5038408;28;20202;-74
2021/07/30 10:36:06;;;;;;;7.95;3.60;;;37.00;83.30;;;;;;5026947;28;20737;-74
2021/07/30 10:38:34;;;;;;;7.68;3.20;;;36.80;82.30;;;;;;5008470;28;20283;-73
2021/07/30 10:41:06;;;;;;;8.13;3.28;;;36.00;83.10;;;;;;5045119;28;20209;-74
2021/07/30 10:44:02;;;;;;;11.88;3.20;;;35.30;83.70;;;;;;5056954;28;20818;-73
2021/07/30 10:46:31;;;;;;;11.20;3.75;;;34.90;82.50;;;;;;5044382;28;20250;-75
2021/07/30 10:48:57;;;;;;;6.93;3.40;;;34.80;86.20;;;;;;5043801;28;20267;-74
2021/07/30 10:51:29;;;;;;;9.60;3.38;;;34.80;84.80;;;;;;5043883;28;20187;-75
2021/07/30 10:54:02;;;;;;;7.15;3.55;;;34.60;82.20;;;;;;5044733;28;20186;-74
2021/07/30 10:56:29;;;;;;;10.45;3.95;;;34.50;83.30;;;;;;5043336;28;20188;-74
2021/07/30 10:59:00;;;;;;;6.03;3.60;;;34.30;82.90;;;;;;5042531;28;20175;-74
2021/07/30 11:01:38;;;;;;;9.50;3.90;;;34.40;79.70;;;;;;5054156;28;20191;-74
2021/07/30 11:04:05;;;;;;;7.25;3.33;;;34.30;78.20;;;;;;5040542;28;20647;-74
2021/07/30 11:06:42;;;;;;;7.57;3.60;;;34.30;77.10;;;;;;5043202;28;21446;-75
2021/07/30 11:09:10;;;;;;;8.68;3.35;;;34.30;78.80;;;;;;5028243;28;20187;-74
2021/07/30 11:11:50;;;;;;;15.13;4.22;;;34.20;79.40;;;;;;5042249;28;20259;-74
2021/07/30 11:14:20;;;;;;;12.48;4.18;;;34.30;79.80;;;;;;5026558;28;20237;-73
2021/07/30 11:16:55;;;;;;;13.70;3.63;;;34.30;79.10;;;;;;5039057;28;20660;-73
2021/07/30 11:19:24;;;;;;;8.15;4.18;;;34.30;77.60;;;;;;5024134;28;20215;-73
2021/07/30 11:21:53;;;;;;;12.45;3.50;;;34.30;77.20;;;;;;5041196;28;20211;-75
2021/07/30 11:24:23;;;;;;;7.43;4.38;;;34.20;78.20;;;;;;5039771;28;20179;-74
2021/07/30 11:26:50;;;;;;;11.55;4.20;;;34.20;79.30;;;;;;5024310;28;20203;-75
2021/07/30 11:29:20;;;;;;;8.35;4.13;;;34.20;80.00;;;;;;5041829;28;20679;-74
2021/07/30 11:31:58;;;;;;;4.18;3.40;;;34.30;74.80;;;;;;5040014;28;20210;-74
2021/07/30 11:34:40;;;;;;;8.55;3.55;;;34.00;78.30;;;;;;5036370;28;20623;-74
2021/07/30 11:37:13;;;;;;;13.90;4.10;;;34.10;73.20;;;;;;5036041;28;20205;-74
2021/07/30 11:39:48;;;;;;;7.72;4.18;;;34.20;74.00;;;;;;5039055;28;20191;-73
2021/07/30 11:42:28;;;;;;;16.25;4.03;;;34.30;74.10;;;;;;5044331;28;20207;-74
2021/07/30 11:44:59;;;;;;;8.55;4.20;;;34.40;76.70;;;;;;5044759;28;20192;-74
2021/07/30 11:47:29;;;;;;;6.15;3.45;;;34.30;67.40;;;;;;5021824;28;20203;-73
2021/07/30 11:50:17;;;;;;;10.30;3.60;;;34.30;69.60;;;;;;5036727;28;20620;-73
2021/07/30 11:52:44;;;;;;;6.57;4.15;;;34.40;66.60;;;;;;5038550;28;20199;-74
2021/07/30 11:55:19;;;;;;;7.05;3.47;;;34.40;67.00;;;;;;5054644;28;20247;-76
2021/07/30 11:57:52;;;;;;;10.00;3.88;;;34.40;68.20;;;;;;5042624;28;20232;-74
2021/07/30 12:00:31;;;;;;;12.15;3.80;;;34.40;62.10;;;;;;5038820;28;20184;-78
2021/07/30 12:03:14;;;;;;;4.85;3.20;;;34.40;63.00;;;;;;5040355;28;20771;-73
2021/07/30 12:05:43;;;;;;;13.15;3.63;;;34.40;59.50;;;;;;5026526;28;20184;-76
2021/07/30 12:08:11;;;;;;;9.10;3.30;;;34.40;57.50;;;;;;5026960;28;20607;-74
2021/07/30 12:10:38;;;;;;;7.22;3.78;;;34.50;53.60;;;;;;5026532;28;20180;-76
2021/07/30 12:13:07;;;;;;;14.82;3.42;;;34.50;55.10;;;;;;5025659;28;20195;-77
2021/07/30 12:15:38;;;;;;;9.00;3.30;;;34.60;51.50;;;;;;5040356;28;20218;-75
2021/07/30 12:18:06;;;;;;;8.23;4.03;;;34.70;55.20;;;;;;5023386;28;20302;-75
2021/07/30 12:20:38;;;;;;;12.27;3.30;;;34.70;52.50;;;;;;5041774;28;20187;-75
2021/07/30 12:23:15;;;;;;;12.18;4.05;;;34.50;55.00;;;;;;5043151;28;20224;-74
2021/07/30 12:25:49;;;;;;;13.27;3.72;;;34.40;52.50;;;;;;5039990;28;20179;-76
2021/07/30 12:28:18;;;;;;;10.85;3.80;;;34.30;54.90;;;;;;5061290;28;20274;-77
2021/07/30 12:30:52;;;;;;;7.78;3.42;;;34.50;54.20;;;;;;5030021;28;20259;-76
2021/07/30 12:33:33;;;;;;;8.27;3.40;;;34.60;52.20;;;;;;5032582;28;20276;-76
2021/07/30 12:36:07;;;;;;;7.25;3.47;;;34.50;54.80;;;;;;5044573;28;20686;-75
2021/07/30 12:38:58;;;;;;;9.43;3.67;;;34.50;54.00;;;;;;5045794;28;20278;-74
2021/07/30 12:41:29;;;;;;;6.97;3.33;;;34.50;58.10;;;;;;5047355;28;20750;-75
2021/07/30 12:44:14;;;;;;;6.55;3.20;;;34.70;54.50;;;;;;5045868;28;20184;-77
2021/07/30 12:46:46;;;;;;;17.55;3.65;;;34.70;56.30;;;;;;5045535;28;20199;-76
2021/07/30 12:49:26;;;;;;;17.00;3.50;;;34.60;53.50;;;;;;5044787;28;20215;-74
2021/07/30 12:51:53;;;;;;;9.13;3.40;;;34.80;51.30;;;;;;5036593;28;20187;-75
2021/07/30 12:54:19;;;;;;;17.65;3.55;;;34.70;52.60;;;;;;5045186;28;20286;-75
2021/07/30 12:57:00;;;;;;;8.48;3.17;;;34.70;53.70;;;;;;5030352;28;20228;-76